sensor_id;sensor_type;location;lat;lon;timestamp;pressure;altitude;pressure_sealevel;temperature;humidity
50790;BME280;37287;47.554;7.844;2022-09-13T00:02:03;97457.50;;;14.92;91.18
50790;BME280;37287;47.554;7.844;2022-09-13T00:04:30;97460.16;;;14.95;90.58
50790;BME280;37287;47.554;7.844;2022-09-13T00:06:56;97456.25;;;14.96;90.50
50790;BME280;37287;47.554;7.844;2022-09-13T00:09:23;97453.22;;;14.91;90.18
50790;BME280;37287;47.554;7.844;2022-09-13T00:11:54;97450.91;;;14.89;91.51
50790;BME280;37287;47.554;7.844;2022-09-13T00:14:20;97453.28;;;14.87;91.21
50790;BME280;37287;47.554;7.844;2022-09-13T00:16:47;97448.66;;;14.84;91.17
50790;BME280;37287;47.554;7.844;2022-09-13T00:19:15;97446.41;;;14.79;90.59
50790;BME280;37287;47.554;7.844;2022-09-13T00:21:44;97459.31;;;14.75;91.25
50790;BME280;37287;47.554;7.844;2022-09-13T00:24:10;97459.78;;;14.70;91.31
50790;BME280;37287;47.554;7.844;2022-09-13T00:26:37;97466.47;;;14.65;91.87
50790;BME280;37287;47.554;7.844;2022-09-13T00:29:04;97467.31;;;14.62;91.82
50790;BME280;37287;47.554;7.844;2022-09-13T00:31:30;97463.41;;;14.59;91.57
50790;BME280;37287;47.554;7.844;2022-09-13T00:34:01;97454.44;;;14.63;91.69
50790;BME280;37287;47.554;7.844;2022-09-13T00:36:28;97459.47;;;14.64;91.37
50790;BME280;37287;47.554;7.844;2022-09-13T00:38:55;97455.22;;;14.63;91.26
50790;BME280;37287;47.554;7.844;2022-09-13T00:41:23;97457.50;;;14.65;91.17
50790;BME280;37287;47.554;7.844;2022-09-13T00:43:55;97448.59;;;14.64;91.43
50790;BME280;37287;47.554;7.844;2022-09-13T00:46:43;97446.88;;;14.74;91.62
50790;BME280;37287;47.554;7.844;2022-09-13T00:49:15;97453.03;;;14.78;91.18
50790;BME280;37287;47.554;7.844;2022-09-13T00:51:48;97453.63;;;14.89;90.50
50790;BME280;37287;47.554;7.844;2022-09-13T00:54:21;97456.38;;;14.89;90.10
50790;BME280;37287;47.554;7.844;2022-09-13T00:56:53;97454.41;;;14.90;89.92
50790;BME280;37287;47.554;7.844;2022-09-13T00:59:25;97460.97;;;14.92;89.59
50790;BME280;37287;47.554;7.844;2022-09-13T01:01:55;97458.72;;;14.87;89.54
50790;BME280;37287;47.554;7.844;2022-09-13T01:04:28;97459.63;;;14.81;90.26
50790;BME280;37287;47.554;7.844;2022-09-13T01:06:58;97465.84;;;14.81;89.94
50790;BME280;37287;47.554;7.844;2022-09-13T01:09:26;97469.03;;;14.76;89.75
50790;BME280;37287;47.554;7.844;2022-09-13T01:12:05;97455.47;;;14.72;90.13
50790;BME280;37287;47.554;7.844;2022-09-13T01:14:36;97468.56;;;14.54;91.04
50790;BME280;37287;47.554;7.844;2022-09-13T01:17:03;97471.22;;;14.30;92.21
50790;BME280;37287;47.554;7.844;2022-09-13T01:19:30;97472.88;;;14.24;93.68
50790;BME280;37287;47.554;7.844;2022-09-13T01:22:17;97474.56;;;14.14;94.36
50790;BME280;37287;47.554;7.844;2022-09-13T01:25:25;97472.03;;;14.00;95.59
50790;BME280;37287;47.554;7.844;2022-09-13T01:30:37;97481.31;;;13.68;98.36
50790;BME280;37287;47.554;7.844;2022-09-13T01:39:14;97484.00;;;13.30;100.00
50790;BME280;37287;47.554;7.844;2022-09-13T01:50:42;97488.97;;;13.42;100.00
50790;BME280;37287;47.554;7.844;2022-09-13T01:58:55;97478.84;;;13.46;100.00
50790;BME280;37287;47.554;7.844;2022-09-13T02:01:36;97479.19;;;13.48;100.00
50790;BME280;37287;47.554;7.844;2022-09-13T02:04:17;97487.78;;;13.43;100.00
50790;BME280;37287;47.554;7.844;2022-09-13T02:06:57;97483.16;;;13.40;100.00
50790;BME280;37287;47.554;7.844;2022-09-13T02:09:29;97480.09;;;13.38;100.00
50790;BME280;37287;47.554;7.844;2022-09-13T02:12:04;97476.59;;;13.34;100.00
50790;BME280;37287;47.554;7.844;2022-09-13T02:14:42;97475.09;;;13.29;100.00
50790;BME280;37287;47.554;7.844;2022-09-13T02:17:16;97474.78;;;13.20;100.00
50790;BME280;37287;47.554;7.844;2022-09-13T02:20:02;97474.44;;;13.18;100.00
50790;BME280;37287;47.554;7.844;2022-09-13T02:22:34;97469.38;;;13.16;100.00
50790;BME280;37287;47.554;7.844;2022-09-13T02:25:21;97472.09;;;13.16;100.00
50790;BME280;37287;47.554;7.844;2022-09-13T02:27:52;97468.59;;;13.16;100.00
50790;BME280;37287;47.554;7.844;2022-09-13T02:30:27;97464.72;;;13.17;100.00
50790;BME280;37287;47.554;7.844;2022-09-13T02:33:03;97454.66;;;13.14;100.00
50790;BME280;37287;47.554;7.844;2022-09-13T02:35:40;97456.19;;;13.15;100.00
50790;BME280;37287;47.554;7.844;2022-09-13T02:38:14;97454.19;;;13.19;100.00
50790;BME280;37287;47.554;7.844;2022-09-13T02:40:50;97457.31;;;13.17;100.00
50790;BME280;37287;47.554;7.844;2022-09-13T02:43:28;97450.84;;;13.04;100.00
50790;BME280;37287;47.554;7.844;2022-09-13T02:46:12;97465.81;;;12.81;100.00
50790;BME280;37287;47.554;7.844;2022-09-13T02:48:59;97458.94;;;12.66;100.00
50790;BME280;37287;47.554;7.844;2022-09-13T02:54:31;97462.16;;;12.46;100.00
50790;BME280;37287;47.554;7.844;2022-09-13T02:57:28;97460.66;;;12.38;100.00
50790;BME280;37287;47.554;7.844;2022-09-13T02:59:58;97460.69;;;12.31;100.00
50790;BME280;37287;47.554;7.844;2022-09-13T03:02:30;97456.13;;;12.20;100.00
50790;BME280;37287;47.554;7.844;2022-09-13T03:04:59;97456.91;;;12.17;100.00
50790;BME280;37287;47.554;7.844;2022-09-13T03:07:26;97464.31;;;12.13;100.00
50790;BME280;37287;47.554;7.844;2022-09-13T03:09:57;97472.84;;;12.08;100.00
50790;BME280;37287;47.554;7.844;2022-09-13T03:23:43;97463.94;;;11.93;100.00
50790;BME280;37287;47.554;7.844;2022-09-13T03:29:05;97459.34;;;11.86;100.00
50790;BME280;37287;47.554;7.844;2022-09-13T03:31:44;97467.84;;;11.88;100.00
50790;BME280;37287;47.554;7.844;2022-09-13T03:36:55;97458.94;;;11.92;100.00
50790;BME280;37287;47.554;7.844;2022-09-13T03:39:38;97456.22;;;11.99;100.00
50790;BME280;37287;47.554;7.844;2022-09-13T03:42:19;97461.19;;;12.15;100.00
50790;BME280;37287;47.554;7.844;2022-09-13T03:44:49;97462.66;;;12.27;100.00
50790;BME280;37287;47.554;7.844;2022-09-13T03:47:20;97475.09;;;12.24;100.00
50790;BME280;37287;47.554;7.844;2022-09-13T03:49:48;97472.81;;;12.19;100.00
50790;BME280;37287;47.554;7.844;2022-09-13T03:52:19;97468.53;;;12.18;100.00
50790;BME280;37287;47.554;7.844;2022-09-13T03:54:51;97465.34;;;12.34;100.00
50790;BME280;37287;47.554;7.844;2022-09-13T03:57:19;97463.38;;;12.38;100.00
50790;BME280;37287;47.554;7.844;2022-09-13T03:59:52;97463.75;;;12.40;100.00
50790;BME280;37287;47.554;7.844;2022-09-13T04:02:20;97459.84;;;12.41;100.00
50790;BME280;37287;47.554;7.844;2022-09-13T04:04:48;97459.44;;;12.46;100.00
50790;BME280;37287;47.554;7.844;2022-09-13T04:07:22;97455.94;;;12.49;100.00
50790;BME280;37287;47.554;7.844;2022-09-13T04:09:51;97455.88;;;12.56;100.00
50790;BME280;37287;47.554;7.844;2022-09-13T04:12:20;97450.00;;;12.65;100.00
50790;BME280;37287;47.554;7.844;2022-09-13T04:14:47;97455.78;;;12.71;100.00
50790;BME280;37287;47.554;7.844;2022-09-13T04:17:14;97457.31;;;12.72;100.00
50790;BME280;37287;47.554;7.844;2022-09-13T04:19:41;97457.31;;;12.72;100.00
50790;BME280;37287;47.554;7.844;2022-09-13T04:22:10;97452.63;;;12.80;100.00
50790;BME280;37287;47.554;7.844;2022-09-13T04:24:38;97454.75;;;13.03;100.00
50790;BME280;37287;47.554;7.844;2022-09-13T04:27:05;97443.41;;;13.12;100.00
50790;BME280;37287;47.554;7.844;2022-09-13T04:29:32;97452.28;;;13.19;100.00
50790;BME280;37287;47.554;7.844;2022-09-13T04:31:59;97451.38;;;13.33;100.00
50790;BME280;37287;47.554;7.844;2022-09-13T04:34:26;97449.78;;;13.36;100.00
50790;BME280;37287;47.554;7.844;2022-09-13T04:36:55;97464.13;;;13.40;100.00
50790;BME280;37287;47.554;7.844;2022-09-13T04:39:26;97465.56;;;13.52;100.00
50790;BME280;37287;47.554;7.844;2022-09-13T04:41:53;97465.91;;;13.57;100.00
50790;BME280;37287;47.554;7.844;2022-09-13T04:44:20;97475.19;;;13.60;100.00
50790;BME280;37287;47.554;7.844;2022-09-13T04:46:48;97477.78;;;13.71;100.00
50790;BME280;37287;47.554;7.844;2022-09-13T04:49:16;97484.41;;;13.70;100.00
50790;BME280;37287;47.554;7.844;2022-09-13T04:51:43;97477.75;;;13.33;100.00
50790;BME280;37287;47.554;7.844;2022-09-13T04:54:11;97479.13;;;13.14;100.00
50790;BME280;37287;47.554;7.844;2022-09-13T04:56:41;97478.78;;;13.04;100.00
50790;BME280;37287;47.554;7.844;2022-09-13T04:59:09;97467.59;;;12.99;100.00
50790;BME280;37287;47.554;7.844;2022-09-13T05:01:36;97480.41;;;12.98;100.00
50790;BME280;37287;47.554;7.844;2022-09-13T05:04:04;97470.72;;;12.97;100.00
50790;BME280;37287;47.554;7.844;2022-09-13T05:06:31;97473.44;;;12.97;100.00
50790;BME280;37287;47.554;7.844;2022-09-13T05:08:59;97469.47;;;13.05;100.00
50790;BME280;37287;47.554;7.844;2022-09-13T05:11:27;97466.19;;;13.25;100.00
50790;BME280;37287;47.554;7.844;2022-09-13T05:13:57;97462.38;;;13.57;100.00
50790;BME280;37287;47.554;7.844;2022-09-13T05:16:30;97458.88;;;13.91;100.00
50790;BME280;37287;47.554;7.844;2022-09-13T05:18:59;97451.19;;;14.17;100.00
50790;BME280;37287;47.554;7.844;2022-09-13T05:21:28;97451.38;;;14.57;100.00
50790;BME280;37287;47.554;7.844;2022-09-13T05:23:57;97454.09;;;14.84;100.00
50790;BME280;37287;47.554;7.844;2022-09-13T05:26:27;97452.22;;;15.05;100.00
50790;BME280;37287;47.554;7.844;2022-09-13T05:28:59;97452.00;;;15.39;98.94
50790;BME280;37287;47.554;7.844;2022-09-13T05:31:32;97454.09;;;15.72;95.92
50790;BME280;37287;47.554;7.844;2022-09-13T05:34:04;97453.41;;;16.08;93.83
50790;BME280;37287;47.554;7.844;2022-09-13T05:36:32;97450.31;;;16.42;91.75
50790;BME280;37287;47.554;7.844;2022-09-13T05:38:59;97455.81;;;16.75;89.49
50790;BME280;37287;47.554;7.844;2022-09-13T05:41:46;97463.00;;;17.18;87.00
50790;BME280;37287;47.554;7.844;2022-09-13T05:44:14;97447.81;;;17.30;85.59
50790;BME280;37287;47.554;7.844;2022-09-13T05:46:41;97443.75;;;17.22;85.27
50790;BME280;37287;47.554;7.844;2022-09-13T05:49:10;97445.56;;;16.79;86.47
50790;BME280;37287;47.554;7.844;2022-09-13T05:51:37;97435.91;;;16.42;89.13
50790;BME280;37287;47.554;7.844;2022-09-13T05:54:04;97440.09;;;16.10;91.08
50790;BME280;37287;47.554;7.844;2022-09-13T05:56:31;97438.09;;;15.94;92.71
50790;BME280;37287;47.554;7.844;2022-09-13T05:58:59;97447.63;;;15.86;93.64
50790;BME280;37287;47.554;7.844;2022-09-13T06:01:27;97438.75;;;15.81;94.22
50790;BME280;37287;47.554;7.844;2022-09-13T06:03:56;97452.44;;;15.78;95.02
50790;BME280;37287;47.554;7.844;2022-09-13T06:06:25;97442.59;;;15.84;94.88
50790;BME280;37287;47.554;7.844;2022-09-13T06:08:54;97438.94;;;15.91;94.59
50790;BME280;37287;47.554;7.844;2022-09-13T06:11:22;97436.66;;;15.89;94.26
50790;BME280;37287;47.554;7.844;2022-09-13T06:13:51;97437.13;;;15.84;94.84
50790;BME280;37287;47.554;7.844;2022-09-13T06:16:20;97437.13;;;15.84;94.40
50790;BME280;37287;47.554;7.844;2022-09-13T06:18:47;97434.25;;;15.91;94.62
50790;BME280;37287;47.554;7.844;2022-09-13T06:21:18;97434.53;;;16.83;92.65
50790;BME280;37287;47.554;7.844;2022-09-13T06:23:48;97432.84;;;17.64;85.44
50790;BME280;37287;47.554;7.844;2022-09-13T06:26:21;97422.03;;;18.16;81.52
50790;BME280;37287;47.554;7.844;2022-09-13T06:28:49;97426.06;;;18.50;79.98
50790;BME280;37287;47.554;7.844;2022-09-13T06:31:18;97429.75;;;19.07;77.80
50790;BME280;37287;47.554;7.844;2022-09-13T06:33:45;97429.09;;;19.25;75.89
50790;BME280;37287;47.554;7.844;2022-09-13T06:36:17;97416.31;;;19.45;74.08
50790;BME280;37287;47.554;7.844;2022-09-13T06:38:48;97415.84;;;19.90;74.00
50790;BME280;37287;47.554;7.844;2022-09-13T06:41:20;97407.88;;;20.15;72.21
50790;BME280;37287;47.554;7.844;2022-09-13T06:43:57;97406.16;;;20.39;70.43
50790;BME280;37287;47.554;7.844;2022-09-13T06:46:26;97417.50;;;20.51;69.33
50790;BME280;37287;47.554;7.844;2022-09-13T06:48:54;97416.66;;;20.72;70.73
50790;BME280;37287;47.554;7.844;2022-09-13T06:51:22;97409.97;;;20.83;67.32
50790;BME280;37287;47.554;7.844;2022-09-13T06:53:50;97397.13;;;20.89;68.30
50790;BME280;37287;47.554;7.844;2022-09-13T06:56:20;97401.88;;;20.88;65.68
50790;BME280;37287;47.554;7.844;2022-09-13T06:58:49;97402.63;;;20.98;68.15
50790;BME280;37287;47.554;7.844;2022-09-13T07:01:22;97409.38;;;21.34;67.39
50790;BME280;37287;47.554;7.844;2022-09-13T07:03:52;97406.16;;;21.54;66.55
50790;BME280;37287;47.554;7.844;2022-09-13T07:06:26;97394.09;;;21.61;64.34
50790;BME280;37287;47.554;7.844;2022-09-13T07:08:54;97405.19;;;21.94;65.02
50790;BME280;37287;47.554;7.844;2022-09-13T07:11:23;97397.78;;;22.10;63.42
50790;BME280;37287;47.554;7.844;2022-09-13T07:13:57;97402.44;;;22.37;63.37
50790;BME280;37287;47.554;7.844;2022-09-13T07:16:29;97412.19;;;22.47;63.09
50790;BME280;37287;47.554;7.844;2022-09-13T07:18:59;97404.44;;;22.27;59.74
50790;BME280;37287;47.554;7.844;2022-09-13T07:21:28;97396.69;;;22.16;63.29
50790;BME280;37287;47.554;7.844;2022-09-13T07:23:55;97395.56;;;22.32;62.67
50790;BME280;37287;47.554;7.844;2022-09-13T07:26:23;97386.66;;;22.62;62.10
50790;BME280;37287;47.554;7.844;2022-09-13T07:28:52;97392.03;;;22.90;60.63
50790;BME280;37287;47.554;7.844;2022-09-13T07:31:24;97397.31;;;22.78;58.80
50790;BME280;37287;47.554;7.844;2022-09-13T07:33:56;97405.13;;;22.80;58.68
50790;BME280;37287;47.554;7.844;2022-09-13T07:36:24;97404.63;;;23.06;59.92
50790;BME280;37287;47.554;7.844;2022-09-13T07:38:51;97409.19;;;23.09;59.28
50790;BME280;37287;47.554;7.844;2022-09-13T07:41:21;97401.22;;;23.35;59.42
50790;BME280;37287;47.554;7.844;2022-09-13T07:43:48;97404.19;;;23.76;57.80
50790;BME280;37287;47.554;7.844;2022-09-13T07:46:17;97406.88;;;23.85;57.33
50790;BME280;37287;47.554;7.844;2022-09-13T07:48:46;97397.91;;;23.61;57.71
50790;BME280;37287;47.554;7.844;2022-09-13T07:51:16;97401.91;;;23.60;56.51
50790;BME280;37287;47.554;7.844;2022-09-13T07:53:44;97396.88;;;23.73;58.13
50790;BME280;37287;47.554;7.844;2022-09-13T07:56:16;97391.03;;;24.16;55.16
50790;BME280;37287;47.554;7.844;2022-09-13T07:58:44;97396.56;;;24.16;57.58
50790;BME280;37287;47.554;7.844;2022-09-13T08:01:17;97394.09;;;24.03;55.25
50790;BME280;37287;47.554;7.844;2022-09-13T08:04:05;97394.84;;;24.18;57.17
50790;BME280;37287;47.554;7.844;2022-09-13T08:07:09;97388.97;;;24.11;54.76
50790;BME280;37287;47.554;7.844;2022-09-13T08:09:36;97383.84;;;23.89;56.21
50790;BME280;37287;47.554;7.844;2022-09-13T08:12:02;97387.44;;;23.80;57.30
50790;BME280;37287;47.554;7.844;2022-09-13T08:14:29;97389.81;;;24.17;55.90
50790;BME280;37287;47.554;7.844;2022-09-13T08:16:57;97385.81;;;24.53;56.15
50790;BME280;37287;47.554;7.844;2022-09-13T08:19:24;97390.69;;;24.79;54.23
50790;BME280;37287;47.554;7.844;2022-09-13T08:21:51;97382.09;;;24.98;53.60
50790;BME280;37287;47.554;7.844;2022-09-13T08:24:21;97391.31;;;24.89;52.75
50790;BME280;37287;47.554;7.844;2022-09-13T08:26:48;97380.19;;;24.83;53.99
50790;BME280;37287;47.554;7.844;2022-09-13T08:29:17;97391.34;;;24.53;53.30
50790;BME280;37287;47.554;7.844;2022-09-13T08:31:44;97388.97;;;24.46;53.81
50790;BME280;37287;47.554;7.844;2022-09-13T08:34:12;97388.75;;;23.84;56.97
50790;BME280;37287;47.554;7.844;2022-09-13T08:36:40;97380.19;;;24.12;56.49
50790;BME280;37287;47.554;7.844;2022-09-13T08:39:13;97387.44;;;23.80;56.71
50790;BME280;37287;47.554;7.844;2022-09-13T08:44:26;97398.09;;;23.72;56.75
50790;BME280;37287;47.554;7.844;2022-09-13T08:47:06;97388.97;;;23.66;57.53
50790;BME280;37287;47.554;7.844;2022-09-13T08:49:43;97388.38;;;23.62;56.13
50790;BME280;37287;47.554;7.844;2022-09-13T08:52:34;97390.81;;;23.30;58.19
50790;BME280;37287;47.554;7.844;2022-09-13T08:55:20;97392.75;;;23.53;58.00
50790;BME280;37287;47.554;7.844;2022-09-13T09:00:50;97389.72;;;24.11;56.39
50790;BME280;37287;47.554;7.844;2022-09-13T09:03:31;97386.97;;;23.96;57.91
50790;BME280;37287;47.554;7.844;2022-09-13T09:06:09;97382.81;;;24.21;56.92
50790;BME280;37287;47.554;7.844;2022-09-13T09:08:46;97390.97;;;24.81;55.87
50790;BME280;37287;47.554;7.844;2022-09-13T09:11:35;97380.13;;;24.98;54.20
50790;BME280;37287;47.554;7.844;2022-09-13T09:14:16;97382.81;;;24.93;56.01
50790;BME280;37287;47.554;7.844;2022-09-13T09:16:52;97376.44;;;25.07;55.06
50790;BME280;37287;47.554;7.844;2022-09-13T09:19:53;97382.59;;;25.17;53.80
50790;BME280;37287;47.554;7.844;2022-09-13T09:22:22;97385.69;;;25.24;54.79
50790;BME280;37287;47.554;7.844;2022-09-13T09:24:55;97381.59;;;25.67;53.25
50790;BME280;37287;47.554;7.844;2022-09-13T09:27:22;97377.94;;;25.81;53.91
50790;BME280;37287;47.554;7.844;2022-09-13T09:29:50;97378.63;;;26.02;53.72
50790;BME280;37287;47.554;7.844;2022-09-13T09:40:44;97362.47;;;26.33;52.36
50790;BME280;37287;47.554;7.844;2022-09-13T09:43:21;97351.38;;;26.87;52.14
50790;BME280;37287;47.554;7.844;2022-09-13T09:45:51;97349.78;;;26.69;50.80
50790;BME280;37287;47.554;7.844;2022-09-13T09:48:26;97347.03;;;26.75;51.93
50790;BME280;37287;47.554;7.844;2022-09-13T09:50:56;97357.69;;;26.82;49.82
50790;BME280;37287;47.554;7.844;2022-09-13T09:53:36;97362.75;;;26.89;51.66
50790;BME280;37287;47.554;7.844;2022-09-13T09:56:23;97357.88;;;27.50;49.26
50790;BME280;37287;47.554;7.844;2022-09-13T09:58:52;97352.84;;;27.49;50.04
50790;BME280;37287;47.554;7.844;2022-09-13T10:01:31;97353.31;;;27.53;50.37
50790;BME280;37287;47.554;7.844;2022-09-13T10:06:29;97356.28;;;27.15;49.85
50790;BME280;37287;47.554;7.844;2022-09-13T10:09:05;97358.09;;;27.35;49.89
50790;BME280;37287;47.554;7.844;2022-09-13T10:11:55;97348.72;;;27.33;49.79
50790;BME280;37287;47.554;7.844;2022-09-13T10:17:16;97353.50;;;27.21;51.62
50790;BME280;37287;47.554;7.844;2022-09-13T10:22:21;97343.47;;;27.40;50.93
50790;BME280;37287;47.554;7.844;2022-09-13T10:24:48;97327.50;;;27.29;50.42
50790;BME280;37287;47.554;7.844;2022-09-13T10:27:27;97334.47;;;26.85;51.72
50790;BME280;37287;47.554;7.844;2022-09-13T10:30:00;97313.53;;;27.01;52.52
50790;BME280;37287;47.554;7.844;2022-09-13T10:32:29;97316.09;;;26.99;51.41
50790;BME280;37287;47.554;7.844;2022-09-13T10:35:02;97301.94;;;27.03;52.38
50790;BME280;37287;47.554;7.844;2022-09-13T10:37:35;97301.13;;;26.85;51.89
50790;BME280;37287;47.554;7.844;2022-09-13T10:40:31;97298.22;;;26.51;52.05
50790;BME280;37287;47.554;7.844;2022-09-13T10:43:14;97291.38;;;26.52;52.25
50790;BME280;37287;47.554;7.844;2022-09-13T10:45:48;97296.91;;;26.47;53.15
50790;BME280;37287;47.554;7.844;2022-09-13T10:48:20;97291.25;;;26.79;52.67
50790;BME280;37287;47.554;7.844;2022-09-13T10:51:11;97298.72;;;27.55;50.56
50790;BME280;37287;47.554;7.844;2022-09-13T10:53:43;97297.25;;;27.60;50.00
50790;BME280;37287;47.554;7.844;2022-09-13T10:56:25;97291.69;;;27.66;48.98
50790;BME280;37287;47.554;7.844;2022-09-13T10:59:22;97289.88;;;27.74;48.73
50790;BME280;37287;47.554;7.844;2022-09-13T11:02:05;97290.16;;;27.42;49.28
50790;BME280;37287;47.554;7.844;2022-09-13T11:07:35;97265.88;;;27.71;49.54
50790;BME280;37287;47.554;7.844;2022-09-13T11:10:10;97263.84;;;27.20;50.94
50790;BME280;37287;47.554;7.844;2022-09-13T11:13:05;97261.75;;;26.92;50.71
50790;BME280;37287;47.554;7.844;2022-09-13T11:16:10;97254.19;;;26.99;51.91
50790;BME280;37287;47.554;7.844;2022-09-13T11:19:01;97242.34;;;27.26;50.27
50790;BME280;37287;47.554;7.844;2022-09-13T11:27:41;97235.06;;;27.57;50.30
50790;BME280;37287;47.554;7.844;2022-09-13T11:30:18;97234.75;;;27.84;50.20
50790;BME280;37287;47.554;7.844;2022-09-13T11:35:32;97226.19;;;27.31;49.82
50790;BME280;37287;47.554;7.844;2022-09-13T11:52:32;97222.19;;;27.37;50.95
50790;BME280;37287;47.554;7.844;2022-09-13T11:55:12;97217.34;;;27.32;50.77
50790;BME280;37287;47.554;7.844;2022-09-13T11:57:45;97223.91;;;27.23;50.62
50790;BME280;37287;47.554;7.844;2022-09-13T12:00:23;97217.84;;;27.08;51.34
50790;BME280;37287;47.554;7.844;2022-09-13T12:05:34;97214.72;;;26.66;53.13
50790;BME280;37287;47.554;7.844;2022-09-13T12:08:12;97235.97;;;26.75;52.25
50790;BME280;37287;47.554;7.844;2022-09-13T12:11:02;97227.09;;;26.59;52.83
50790;BME280;37287;47.554;7.844;2022-09-13T12:13:38;97221.53;;;26.65;53.08
50790;BME280;37287;47.554;7.844;2022-09-13T12:16:21;97235.88;;;26.58;53.04
50790;BME280;37287;47.554;7.844;2022-09-13T12:18:54;97237.97;;;26.69;52.72
50790;BME280;37287;47.554;7.844;2022-09-13T12:21:28;97225.06;;;26.60;52.89
50790;BME280;37287;47.554;7.844;2022-09-13T12:24:04;97224.38;;;26.71;52.74
50790;BME280;37287;47.554;7.844;2022-09-13T12:26:49;97224.03;;;26.63;52.69
50790;BME280;37287;47.554;7.844;2022-09-13T12:31:45;97234.63;;;26.53;53.09
50790;BME280;37287;47.554;7.844;2022-09-13T12:34:39;97230.84;;;26.56;53.35
50790;BME280;37287;47.554;7.844;2022-09-13T12:37:15;97237.94;;;26.63;52.97
50790;BME280;37287;47.554;7.844;2022-09-13T12:45:57;97236.50;;;27.02;52.41
50790;BME280;37287;47.554;7.844;2022-09-13T12:48:50;97226.66;;;26.84;53.26
50790;BME280;37287;47.554;7.844;2022-09-13T12:51:34;97223.38;;;26.85;52.48
50790;BME280;37287;47.554;7.844;2022-09-13T12:57:07;97212.47;;;26.70;53.80
50790;BME280;37287;47.554;7.844;2022-09-13T12:59:59;97207.44;;;26.74;53.11
50790;BME280;37287;47.554;7.844;2022-09-13T13:05:04;97201.38;;;26.76;53.82
50790;BME280;37287;47.554;7.844;2022-09-13T13:07:33;97203.88;;;26.63;53.50
50790;BME280;37287;47.554;7.844;2022-09-13T13:10:00;97203.59;;;26.60;54.44
50790;BME280;37287;47.554;7.844;2022-09-13T13:12:35;97206.13;;;26.58;53.86
50790;BME280;37287;47.554;7.844;2022-09-13T13:17:44;97206.69;;;26.74;53.87
50790;BME280;37287;47.554;7.844;2022-09-13T13:23:24;97203.44;;;26.87;54.17
50790;BME280;37287;47.554;7.844;2022-09-13T13:26:07;97204.94;;;26.76;54.00
50790;BME280;37287;47.554;7.844;2022-09-13T13:42:10;97186.28;;;27.05;53.23
50790;BME280;37287;47.554;7.844;2022-09-13T13:57:35;97156.22;;;27.38;51.63
50790;BME280;37287;47.554;7.844;2022-09-13T14:19:23;97129.19;;;26.99;53.19
50790;BME280;37287;47.554;7.844;2022-09-13T14:22:25;97138.78;;;27.03;52.05
50790;BME280;37287;47.554;7.844;2022-09-13T14:25:32;97134.00;;;26.98;51.77
50790;BME280;37287;47.554;7.844;2022-09-13T14:27:58;97141.56;;;26.98;52.27
50790;BME280;37287;47.554;7.844;2022-09-13T14:30:31;97135.25;;;27.03;52.02
50790;BME280;37287;47.554;7.844;2022-09-13T14:33:00;97142.34;;;26.92;52.40
50790;BME280;37287;47.554;7.844;2022-09-13T14:35:35;97144.09;;;26.96;52.58
50790;BME280;37287;47.554;7.844;2022-09-13T14:38:20;97146.38;;;26.97;52.39
50790;BME280;37287;47.554;7.844;2022-09-13T14:41:02;97143.34;;;26.95;52.53
50790;BME280;37287;47.554;7.844;2022-09-13T14:43:37;97140.81;;;26.91;52.91
50790;BME280;37287;47.554;7.844;2022-09-13T14:46:13;97134.50;;;26.80;53.52
50790;BME280;37287;47.554;7.844;2022-09-13T14:48:54;97122.88;;;26.75;53.89
50790;BME280;37287;47.554;7.844;2022-09-13T14:51:26;97124.13;;;26.69;54.26
50790;BME280;37287;47.554;7.844;2022-09-13T14:54:00;97121.84;;;26.62;54.72
50790;BME280;37287;47.554;7.844;2022-09-13T14:56:41;97114.00;;;26.43;54.76
50790;BME280;37287;47.554;7.844;2022-09-13T14:59:25;97123.81;;;26.27;55.29
50790;BME280;37287;47.554;7.844;2022-09-13T15:01:54;97121.47;;;26.14;55.43
50790;BME280;37287;47.554;7.844;2022-09-13T15:04:28;97120.47;;;26.06;55.21
50790;BME280;37287;47.554;7.844;2022-09-13T15:07:07;97112.88;;;26.01;55.75
50790;BME280;37287;47.554;7.844;2022-09-13T15:09:34;97114.56;;;25.92;55.76
50790;BME280;37287;47.554;7.844;2022-09-13T15:12:03;97112.56;;;25.87;56.05
50790;BME280;37287;47.554;7.844;2022-09-13T15:14:36;97115.31;;;25.82;56.50
50790;BME280;37287;47.554;7.844;2022-09-13T15:17:09;97105.19;;;25.79;56.82
50790;BME280;37287;47.554;7.844;2022-09-13T15:22:15;97100.41;;;25.79;57.04
50790;BME280;37287;47.554;7.844;2022-09-13T15:24:51;97099.13;;;25.80;57.52
50790;BME280;37287;47.554;7.844;2022-09-13T15:27:25;97101.66;;;25.78;57.52
50790;BME280;37287;47.554;7.844;2022-09-13T15:29:54;97105.72;;;25.83;57.71
50790;BME280;37287;47.554;7.844;2022-09-13T15:32:30;97093.88;;;25.88;57.94
50790;BME280;37287;47.554;7.844;2022-09-13T15:34:59;97101.72;;;25.89;57.21
50790;BME280;37287;47.554;7.844;2022-09-13T15:37:34;97101.97;;;25.97;57.27
50790;BME280;37287;47.554;7.844;2022-09-13T15:40:21;97101.50;;;25.99;57.59
50790;BME280;37287;47.554;7.844;2022-09-13T15:42:50;97097.69;;;25.96;57.57
50790;BME280;37287;47.554;7.844;2022-09-13T15:45:19;97097.66;;;25.85;57.85
50790;BME280;37287;47.554;7.844;2022-09-13T15:47:48;97091.81;;;25.77;58.21
50790;BME280;37287;47.554;7.844;2022-09-13T15:52:45;97084.47;;;25.68;58.46
50790;BME280;37287;47.554;7.844;2022-09-13T15:55:12;97084.22;;;25.61;58.45
50790;BME280;37287;47.554;7.844;2022-09-13T15:57:39;97074.34;;;25.54;58.71
50790;BME280;37287;47.554;7.844;2022-09-13T16:00:25;97064.97;;;25.46;58.69
50790;BME280;37287;47.554;7.844;2022-09-13T16:02:53;97064.19;;;25.39;58.82
50790;BME280;37287;47.554;7.844;2022-09-13T16:05:26;97062.16;;;25.34;58.97
50790;BME280;37287;47.554;7.844;2022-09-13T16:07:52;97057.78;;;25.28;58.90
50790;BME280;37287;47.554;7.844;2022-09-13T16:10:21;97058.00;;;25.18;59.23
50790;BME280;37287;47.554;7.844;2022-09-13T16:12:50;97057.19;;;25.12;59.29
50790;BME280;37287;47.554;7.844;2022-09-13T16:15:16;97057.66;;;25.05;59.00